Palmer, PR

10:30 AM AST on January 30, 2015 (GMT -0400)
Roosevelt Roads Ns | Change Station
CLOSE
Current Station
Airport
Location: Roosevelt Roads,
Elevation: 39 ft
Nearby Weather Stations

Elev 39 ft 18.26 °N, 65.64 °W | Updated 37 minutes ago

Clear
Clear
80 °F
Feels Like 84 °F
N
8
Wind Variable Wind from NE

Today
High -- | Low -- °F
--% Chance of Precip.
Yesterday
High -- | Low -- °F
Precip. -- in
6:56 AM 6:16 PM
Waxing Gibbous, 83% visible
Pressure 30.07 in
Visibility 10.0 miles
Clouds Clear
Heat Index 84 °F
Dew Point 71 °F
Humidity 74%
Rainfall 0.00 in
Snow Depth Not available.
UV 4 out of 12
Pollen Not available.
Air Quality Not available.
Flu Activity Not available.
METAR TJNR 301353Z AUTO 04007KT 10SM CLR 27/22 A3007 RMK AO2 SLP182 T02670217 $

More Conditions Fewer Conditions

Pressure 30.07 in
Visibility 10.0 miles
Clouds Clear
Heat Index 84 °F
Dew Point 71 °F
Humidity 74%
Rainfall 0.00 in
Snow Depth Not available.
UV 4 out of 12
Pollen Not available.
Air Quality Not available.
Flu Activity Not available.
METAR TJNR 301353Z AUTO 04007KT 10SM CLR 27/22 A3007 RMK AO2 SLP182 T02670217 $

More Conditions Fewer Conditions

10-Day Weather Forecast

Almanac

Astronomy

Jan. 30, 2015 Rise Set
Actual Time
Civil Twilight
Nautical Twilight
Astronomical Twilight
Moon
Length of Visible Light
Length of Day
Tomorrow will be .
, % of the Moon is Illuminated

Today's Extremes

State Highs State Lows

Community

WunderPhotos

Upload Photos

1,791,765 photos uploaded!

WunderBlogs® & News

Nearby

Air Quality

  Air Quality AQ Index Pollutant
Not available.

Snow Depth

Station Depth Elevation

Earthquake Activity

City Distance Mag. Time & Date
Minimum magnitude displayed is 2.5.

Coastal Water Temperatures

Place Temperature

Nearby Weather Stations